createdAt,value
2023-05-10T00:02:20.606Z,0.30
2023-05-10T00:05:06.950Z,1.25
2023-05-10T00:07:52.924Z,0.77
2023-05-10T00:10:39.143Z,1.27
2023-05-10T00:13:25.986Z,1.17
2023-05-10T00:16:13.276Z,1.00
2023-05-10T00:19:01.417Z,1.08
2023-05-10T00:21:47.303Z,0.80
2023-05-10T00:24:33.456Z,0.80
2023-05-10T00:27:21.968Z,1.00
2023-05-10T00:30:08.442Z,0.88
2023-05-10T00:32:54.826Z,0.80
2023-05-10T00:35:41.385Z,0.80
2023-05-10T00:38:28.608Z,0.85
2023-05-10T00:41:35.263Z,1.17
2023-05-10T00:44:25.500Z,0.80
2023-05-10T00:47:12.763Z,0.90
2023-05-10T00:50:02.248Z,0.90
2023-05-10T00:52:48.438Z,0.90
2023-05-10T00:55:36.104Z,2.10
2023-05-10T00:58:24.639Z,1.67
2023-05-10T01:01:13.073Z,2.22
2023-05-10T01:04:01.489Z,1.50
2023-05-10T01:06:50.444Z,0.80
2023-05-10T01:09:36.917Z,0.30
2023-05-10T01:12:23.409Z,0.80
2023-05-10T01:15:11.941Z,0.85
2023-05-10T01:17:58.050Z,0.80
2023-05-10T01:20:47.769Z,0.70
2023-05-10T01:24:09.498Z,0.60
2023-05-10T01:27:01.467Z,0.70
2023-05-10T01:30:14.293Z,0.30
2023-05-10T01:33:20.140Z,0.30
2023-05-10T01:36:39.245Z,0.90
2023-05-10T01:39:29.852Z,0.68
2023-05-10T01:42:28.390Z,0.82
2023-05-10T01:45:33.171Z,1.65
2023-05-10T01:48:19.871Z,1.15
2023-05-10T01:51:06.330Z,1.23
2023-05-10T01:53:55.304Z,1.13
2023-05-10T01:56:42.261Z,1.00
2023-05-10T01:59:33.308Z,1.17
2023-05-10T02:02:25.391Z,0.90
2023-05-10T02:05:14.828Z,0.85
2023-05-10T02:08:02.477Z,0.68
2023-05-10T02:10:49.496Z,1.10
2023-05-10T02:13:36.598Z,1.23
2023-05-10T02:16:27.448Z,0.28
2023-05-10T02:19:15.281Z,0.88
2023-05-10T02:22:01.960Z,0.30
2023-05-10T02:24:48.515Z,1.17
2023-05-10T02:27:34.837Z,1.10
2023-05-10T02:30:21.116Z,1.20
2023-05-10T02:33:09.106Z,2.20
2023-05-10T02:35:55.875Z,0.60
2023-05-10T02:38:42.175Z,1.50
2023-05-10T02:41:28.831Z,1.10
2023-05-10T02:44:18.146Z,1.60
2023-05-10T02:47:07.134Z,0.40
2023-05-10T02:49:53.301Z,1.85
2023-05-10T02:52:50.838Z,1.98
2023-05-10T02:55:39.074Z,1.17
2023-05-10T02:58:24.858Z,1.10
2023-05-10T03:01:11.188Z,0.30
2023-05-10T03:03:58.594Z,0.30
2023-05-10T03:06:44.931Z,0.47
2023-05-10T03:09:33.763Z,1.08
2023-05-10T03:12:24.651Z,1.20
2023-05-10T03:15:19.388Z,0.50
2023-05-10T03:18:10.622Z,0.30
2023-05-10T03:21:03.767Z,0.40
2023-05-10T03:23:54.722Z,1.20
2023-05-10T03:26:41.348Z,0.50
2023-05-10T03:29:32.386Z,0.40
2023-05-10T03:32:18.405Z,1.50
2023-05-10T03:35:11.232Z,2.00
2023-05-10T03:37:57.238Z,0.65
2023-05-10T03:40:43.514Z,1.63
2023-05-10T03:43:31.725Z,1.38
2023-05-10T03:46:17.938Z,1.35
2023-05-10T03:49:04.439Z,1.92
2023-05-10T03:51:50.550Z,0.65
2023-05-10T03:54:57.456Z,0.65
2023-05-10T03:57:44.030Z,0.40
2023-05-10T04:00:31.352Z,2.10
2023-05-10T04:03:18.206Z,1.95
2023-05-10T04:06:04.599Z,0.47
2023-05-10T04:08:53.134Z,1.83
2023-05-10T04:11:41.387Z,2.08
2023-05-10T04:14:27.355Z,0.30
2023-05-10T04:17:15.340Z,1.80
2023-05-10T04:20:01.520Z,1.85
2023-05-10T04:22:53.684Z,1.85
2023-05-10T04:25:39.461Z,1.88
2023-05-10T04:28:25.551Z,0.47
2023-05-10T04:31:13.547Z,0.47
2023-05-10T04:34:04.439Z,2.10
2023-05-10T04:36:50.723Z,0.40
2023-05-10T04:39:40.278Z,1.85
2023-05-10T04:42:27.644Z,1.80
2023-05-10T04:45:15.912Z,1.90
2023-05-10T04:48:01.801Z,1.77
2023-05-10T04:50:47.784Z,1.88
2023-05-10T04:53:34.028Z,0.50
2023-05-10T04:56:23.050Z,0.43
2023-05-10T04:59:09.159Z,1.67
2023-05-10T05:01:55.459Z,1.70
2023-05-10T05:04:41.554Z,0.43
2023-05-10T05:07:31.579Z,0.30
2023-05-10T05:10:20.053Z,2.13
2023-05-10T05:13:06.676Z,0.30
2023-05-10T05:15:56.625Z,1.60
2023-05-10T05:18:42.237Z,1.10
2023-05-10T05:21:28.516Z,0.50
2023-05-10T05:24:14.783Z,1.75
2023-05-10T05:27:00.931Z,1.38
2023-05-10T05:29:47.258Z,2.00
2023-05-10T05:32:33.138Z,1.90
2023-05-10T05:35:19.307Z,2.13
2023-05-10T05:38:05.233Z,2.00
2023-05-10T05:40:51.289Z,0.45
2023-05-10T05:43:56.162Z,0.38
2023-05-10T05:46:42.367Z,2.28
2023-05-10T05:49:28.513Z,0.40
2023-05-10T05:52:14.660Z,3.00
2023-05-10T05:55:01.319Z,2.22
2023-05-10T05:57:47.338Z,0.60
2023-05-10T06:00:33.366Z,2.42
2023-05-10T06:03:20.041Z,2.33
2023-05-10T06:06:06.260Z,1.95
2023-05-10T06:08:52.491Z,0.30
2023-05-10T06:11:38.661Z,1.58
2023-05-10T06:14:24.490Z,3.78
2023-05-10T06:17:10.926Z,0.50
2023-05-10T06:19:57.140Z,2.35
2023-05-10T06:22:43.207Z,1.33
2023-05-10T06:25:29.503Z,0.73
2023-05-10T06:28:15.629Z,2.20
2023-05-10T06:31:01.679Z,0.65
2023-05-10T06:33:47.852Z,0.40
2023-05-10T06:36:33.875Z,0.52
2023-05-10T06:39:19.990Z,0.50
2023-05-10T06:42:06.354Z,2.28
2023-05-10T06:44:54.650Z,2.20
2023-05-10T06:47:42.046Z,2.55
2023-05-10T06:50:28.284Z,0.50
2023-05-10T06:53:14.451Z,0.45
2023-05-10T06:56:00.581Z,0.50
2023-05-10T06:58:46.827Z,0.40
2023-05-10T07:01:33.241Z,0.82
2023-05-10T07:04:19.420Z,2.70
2023-05-10T07:07:05.706Z,0.50
2023-05-10T07:09:52.338Z,1.98
2023-05-10T07:12:39.393Z,0.98
2023-05-10T07:15:25.710Z,0.50
2023-05-10T07:18:11.835Z,0.47
2023-05-10T07:20:58.382Z,3.13
2023-05-10T07:23:45.297Z,3.20
2023-05-10T07:26:31.376Z,0.60
2023-05-10T07:29:17.584Z,2.47
2023-05-10T07:32:03.976Z,2.72
2023-05-10T07:34:49.657Z,0.70
2023-05-10T07:37:36.161Z,0.50
2023-05-10T07:40:22.259Z,0.40
2023-05-10T07:43:08.377Z,2.40
2023-05-10T07:45:56.375Z,1.75
2023-05-10T07:49:01.025Z,0.40
2023-05-10T07:51:47.051Z,0.55
2023-05-10T07:54:33.639Z,2.72
2023-05-10T07:57:19.456Z,1.25
2023-05-10T08:00:08.777Z,0.75
2023-05-10T08:03:01.327Z,2.13
2023-05-10T08:05:47.434Z,2.60
2023-05-10T08:08:33.582Z,0.50
2023-05-10T08:11:19.778Z,2.33
2023-05-10T08:14:05.686Z,0.50
2023-05-10T08:16:51.709Z,2.60
2023-05-10T08:19:40.191Z,2.97
2023-05-10T08:22:26.105Z,2.40
2023-05-10T08:25:12.364Z,0.75
2023-05-10T08:27:58.372Z,2.03
2023-05-10T08:30:44.471Z,2.75
2023-05-10T08:33:30.709Z,0.50
2023-05-10T08:36:20.812Z,2.92
2023-05-10T08:39:11.370Z,3.47
2023-05-10T08:42:03.051Z,2.50
2023-05-10T08:44:49.707Z,2.50
2023-05-10T08:47:37.278Z,2.47
2023-05-10T08:50:23.651Z,3.10
2023-05-10T08:53:14.164Z,2.63
2023-05-10T08:56:00.311Z,2.65
2023-05-10T08:58:46.408Z,2.83
2023-05-10T09:01:33.033Z,2.90
2023-05-10T09:04:19.401Z,1.30
2023-05-10T09:07:05.823Z,2.45
2023-05-10T09:09:51.984Z,3.30
2023-05-10T09:12:38.047Z,2.45
2023-05-10T09:15:24.263Z,3.10
2023-05-10T09:18:13.594Z,3.45
2023-05-10T09:20:59.932Z,3.22
2023-05-10T09:23:48.644Z,3.03
2023-05-10T09:26:37.979Z,3.03
2023-05-10T09:29:23.814Z,3.10
2023-05-10T09:32:10.044Z,0.75
2023-05-10T09:34:55.878Z,2.70
2023-05-10T09:37:42.825Z,2.50
2023-05-10T09:40:29.624Z,1.30
2023-05-10T09:43:21.849Z,2.75
2023-05-10T09:46:10.262Z,2.92
2023-05-10T09:48:56.009Z,2.47
2023-05-10T09:51:48.092Z,3.15
2023-05-10T09:54:34.947Z,0.30
2023-05-10T09:57:24.932Z,1.48
2023-05-10T10:00:21.082Z,2.30
2023-05-10T10:03:13.122Z,1.65
2023-05-10T10:05:59.421Z,2.47
2023-05-10T10:08:45.833Z,2.10
2023-05-10T10:11:31.897Z,2.50
2023-05-10T10:14:20.089Z,2.30
2023-05-10T10:17:08.964Z,2.03
2023-05-10T10:19:56.613Z,1.92
2023-05-10T10:22:42.592Z,1.95
2023-05-10T10:25:29.422Z,1.58
2023-05-10T10:28:22.897Z,1.80
2023-05-10T10:31:17.301Z,1.95
2023-05-10T10:34:03.671Z,1.90
2023-05-10T10:36:49.674Z,1.83
2023-05-10T11:01:57.332Z,2.17
2023-05-10T11:10:25.602Z,2.10
2023-05-10T11:14:09.359Z,2.40
2023-05-10T11:17:33.636Z,2.30
2023-05-10T11:20:43.788Z,1.90
2023-05-10T11:23:31.593Z,2.28
2023-05-10T11:26:30.426Z,1.90
2023-05-10T11:29:52.671Z,2.10
2023-05-10T11:32:52.912Z,2.42
2023-05-10T11:39:20.146Z,2.38
2023-05-10T11:43:07.196Z,2.40
2023-05-10T11:46:00.121Z,2.65
2023-05-10T11:48:46.654Z,2.20
2023-05-10T11:51:40.819Z,3.53
2023-05-10T11:59:05.069Z,3.15
2023-05-10T12:05:15.847Z,2.53
2023-05-10T12:23:11.808Z,2.45
2023-05-10T12:52:11.898Z,3.00
2023-05-10T12:55:00.351Z,2.38
2023-05-10T12:57:49.805Z,2.85
2023-05-10T13:01:02.716Z,2.72
2023-05-10T13:03:54.202Z,3.20
2023-05-10T13:06:43.615Z,2.67
2023-05-10T13:09:31.212Z,2.75
2023-05-10T13:12:19.800Z,2.97
2023-05-10T13:15:06.503Z,2.75
2023-05-10T13:18:01.367Z,3.00
2023-05-10T13:20:59.494Z,2.92
2023-05-10T13:23:58.802Z,3.80
2023-05-10T13:26:51.953Z,2.80
2023-05-10T13:30:04.895Z,2.05
2023-05-10T13:32:58.061Z,2.65
2023-05-10T13:40:41.895Z,3.20
2023-05-10T13:43:31.490Z,3.10
2023-05-10T13:47:06.607Z,2.58
2023-05-10T13:49:54.884Z,3.10
2023-05-10T13:52:55.852Z,2.45
2023-05-10T13:55:48.965Z,2.72
2023-05-10T13:58:45.743Z,3.15
2023-05-10T14:01:41.710Z,2.33
2023-05-10T14:04:42.613Z,2.85
2023-05-10T14:08:11.017Z,3.30
2023-05-10T14:11:01.910Z,3.20
2023-05-10T14:17:59.924Z,2.97
2023-05-10T14:21:14.711Z,2.83
2023-05-10T14:24:48.038Z,3.93
2023-05-10T14:28:02.756Z,2.75
2023-05-10T14:31:01.660Z,3.20
2023-05-10T14:33:48.810Z,3.22
2023-05-10T14:36:55.427Z,3.95
2023-05-10T14:39:45.253Z,3.33
2023-05-10T14:47:05.402Z,4.37
2023-05-10T14:49:51.309Z,4.95
2023-05-10T14:52:40.491Z,4.32
2023-05-10T14:55:26.844Z,3.90
2023-05-10T14:58:22.577Z,4.43
2023-05-10T15:01:08.709Z,4.20
2023-05-10T15:04:00.768Z,4.55
2023-05-10T15:06:47.656Z,3.78
2023-05-10T15:09:36.426Z,3.92
2023-05-10T15:12:22.486Z,4.95
2023-05-10T15:15:11.376Z,3.13
2023-05-10T15:17:57.830Z,3.40
2023-05-10T15:20:43.541Z,4.00
2023-05-10T15:23:30.950Z,4.45
2023-05-10T15:26:17.468Z,3.10
2023-05-10T15:29:03.751Z,3.55
2023-05-10T15:31:54.233Z,3.70
2023-05-10T15:34:40.418Z,4.20
2023-05-10T15:37:26.554Z,4.35
2023-05-10T15:40:13.245Z,4.43
2023-05-10T15:43:18.503Z,4.95
2023-05-10T15:46:08.101Z,3.70
2023-05-10T15:58:29.926Z,3.95
2023-05-10T16:01:21.113Z,3.92
2023-05-10T16:04:08.936Z,4.00
2023-05-10T16:06:57.537Z,3.83
2023-05-10T16:09:46.956Z,4.68
2023-05-10T16:12:33.895Z,3.78
2023-05-10T16:15:25.846Z,3.97
2023-05-10T16:18:12.680Z,3.58
2023-05-10T16:20:59.490Z,4.15
2023-05-10T16:23:48.460Z,4.32
2023-05-10T16:26:40.909Z,4.60
2023-05-10T16:29:34.018Z,3.72
2023-05-10T16:32:20.040Z,3.60
2023-05-10T16:35:06.609Z,3.55
2023-05-10T16:37:55.215Z,3.72
2023-05-10T16:40:41.640Z,4.60
2023-05-10T16:43:27.844Z,4.32
2023-05-10T16:46:14.388Z,5.95
2023-05-10T16:49:00.943Z,5.78
2023-05-10T16:51:48.341Z,4.78
2023-05-10T16:54:34.599Z,4.80
2023-05-10T16:57:20.937Z,4.65
2023-05-10T17:00:13.628Z,4.95
2023-05-10T17:03:00.209Z,7.63
2023-05-10T17:05:49.006Z,11.35
2023-05-10T17:08:38.869Z,8.90
2023-05-10T17:11:25.166Z,7.50
2023-05-10T17:14:11.525Z,5.63
2023-05-10T17:16:57.751Z,7.80
2023-05-10T17:19:55.809Z,4.45
2023-05-10T17:23:23.415Z,3.20
2023-05-10T17:26:09.794Z,3.35
2023-05-10T17:28:55.972Z,4.20
2023-05-10T17:31:42.151Z,3.58
2023-05-10T17:34:28.516Z,3.63
2023-05-10T17:37:14.611Z,3.50
2023-05-10T17:43:10.527Z,3.28
2023-05-10T17:45:56.844Z,3.28
2023-05-10T17:48:43.724Z,3.58
2023-05-10T17:51:30.132Z,3.88
2023-05-10T17:54:16.215Z,2.97
2023-05-10T17:57:03.763Z,3.03
2023-05-10T17:59:52.006Z,3.53
2023-05-10T18:02:38.352Z,3.40
2023-05-10T18:05:43.501Z,3.50
2023-05-10T18:08:33.157Z,4.25
2023-05-10T18:11:22.254Z,2.88
2023-05-10T18:14:13.402Z,3.50
2023-05-10T18:16:59.867Z,3.45
2023-05-10T18:19:45.810Z,4.03
2023-05-10T18:22:37.461Z,3.13
2023-05-10T18:25:35.965Z,3.83
2023-05-10T18:28:26.345Z,3.97
2023-05-10T18:31:12.977Z,3.28
2023-05-10T18:33:59.395Z,3.28
2023-05-10T18:36:45.325Z,3.50
2023-05-10T18:39:38.547Z,3.35
2023-05-10T18:42:34.039Z,3.97
2023-05-10T18:45:31.778Z,3.58
2023-05-10T18:48:20.872Z,3.17
2023-05-10T18:51:35.140Z,3.50
2023-05-10T18:54:23.035Z,3.55
2023-05-10T18:57:16.378Z,4.05
2023-05-10T19:00:02.753Z,3.67
2023-05-10T19:02:52.846Z,3.45
2023-05-10T19:05:44.599Z,3.03
2023-05-10T19:08:50.279Z,3.72
2023-05-10T19:11:37.809Z,3.90
2023-05-10T19:14:25.693Z,3.53
2023-05-10T19:17:27.382Z,3.30
2023-05-10T19:20:16.539Z,3.47
2023-05-10T19:25:58.650Z,3.30
2023-05-10T19:28:44.725Z,3.58
2023-05-10T19:31:31.294Z,4.13
2023-05-10T19:34:17.918Z,3.58
2023-05-10T19:37:03.827Z,3.38
2023-05-10T19:39:50.379Z,3.60
2023-05-10T19:42:36.575Z,4.00
2023-05-10T19:45:23.464Z,3.33
2023-05-10T19:48:12.463Z,3.60
2023-05-10T19:51:03.314Z,3.35
2023-05-10T19:53:49.739Z,3.58
2023-05-10T19:56:35.996Z,3.95
2023-05-10T19:59:22.411Z,3.72
2023-05-10T20:02:09.186Z,4.10
2023-05-10T20:04:55.830Z,3.70
2023-05-10T20:07:47.482Z,4.63
2023-05-10T20:10:34.884Z,4.22
2023-05-10T20:13:21.234Z,4.25
2023-05-10T20:16:09.581Z,3.72
2023-05-10T20:18:55.898Z,4.07
2023-05-10T20:25:19.198Z,3.20
2023-05-10T20:28:05.993Z,3.78
2023-05-10T20:30:53.254Z,3.70
2023-05-10T20:33:45.581Z,3.97
2023-05-10T20:36:35.672Z,4.18
2023-05-10T20:39:22.154Z,5.78
2023-05-10T20:42:08.487Z,3.88
2023-05-10T20:45:14.918Z,3.45
2023-05-10T20:48:01.895Z,3.35
2023-05-10T20:50:48.027Z,3.50
2023-05-10T20:53:45.538Z,3.28
2023-05-10T20:56:31.637Z,3.85
2023-05-10T20:59:21.669Z,3.90
2023-05-10T21:02:08.905Z,3.10
2023-05-10T21:04:58.220Z,3.30
2023-05-10T21:07:44.619Z,8.70
2023-05-10T21:10:30.820Z,4.95
2023-05-10T21:13:17.188Z,2.90
2023-05-10T21:16:04.742Z,3.38
2023-05-10T21:18:51.152Z,3.65
2023-05-10T21:21:37.743Z,3.28
2023-05-10T21:24:24.744Z,3.88
2023-05-10T21:27:11.346Z,2.95
2023-05-10T21:30:16.423Z,3.60
2023-05-10T21:33:03.900Z,3.10
2023-05-10T21:35:50.656Z,3.83
2023-05-10T21:38:36.677Z,3.30
2023-05-10T21:41:25.108Z,3.22
2023-05-10T21:44:14.184Z,3.15
2023-05-10T21:47:00.289Z,3.50
2023-05-10T21:49:46.548Z,3.45
2023-05-10T21:52:33.039Z,3.28
2023-05-10T21:55:19.693Z,3.22
2023-05-10T21:58:06.151Z,3.72
2023-05-10T22:00:52.599Z,3.15
2023-05-10T22:03:39.464Z,2.75
2023-05-10T22:06:25.611Z,0.80
2023-05-10T22:09:11.881Z,3.15
2023-05-10T22:12:01.204Z,3.30
2023-05-10T22:14:56.490Z,0.52
2023-05-10T22:17:52.827Z,3.22
2023-05-10T22:20:39.684Z,3.88
2023-05-10T22:23:26.160Z,3.10
2023-05-10T22:26:12.106Z,3.42
2023-05-10T22:28:58.369Z,3.30
2023-05-10T22:31:44.652Z,3.67
2023-05-10T22:34:30.640Z,3.10
2023-05-10T22:37:18.149Z,3.05
2023-05-10T22:40:07.846Z,3.72
2023-05-10T22:42:54.173Z,3.55
2023-05-10T22:45:40.609Z,3.28
2023-05-10T22:48:28.417Z,3.35
2023-05-10T22:51:14.381Z,3.65
2023-05-10T22:54:00.690Z,3.83
2023-05-10T22:56:47.575Z,3.40
2023-05-10T22:59:34.347Z,3.05
2023-05-10T23:02:20.601Z,3.65
2023-05-10T23:05:26.092Z,3.78
2023-05-10T23:08:12.408Z,3.80
2023-05-10T23:10:58.468Z,3.60
2023-05-10T23:13:44.835Z,3.80
2023-05-10T23:16:30.753Z,3.97
2023-05-10T23:19:16.923Z,4.07
2023-05-10T23:22:21.476Z,3.70
2023-05-10T23:25:17.784Z,3.97
2023-05-10T23:28:05.739Z,4.10
2023-05-10T23:30:56.474Z,3.85
2023-05-10T23:33:43.096Z,4.30
2023-05-10T23:36:34.228Z,4.40
2023-05-10T23:39:21.247Z,4.40
2023-05-10T23:42:08.231Z,1.35
2023-05-10T23:45:12.762Z,5.03
2023-05-10T23:47:58.892Z,4.00
2023-05-10T23:50:45.078Z,4.03
2023-05-10T23:53:31.273Z,3.85
2023-05-10T23:56:17.406Z,1.40
2023-05-10T23:59:05.009Z,4.10
